sensor_id;sensor_type;location;lat;lon;timestamp;P1;durP1;ratioP1;P2;durP2;ratioP2
5912;SDS011;2982;42.684;23.356;2022-07-29T00:01:59;9.32;;;8.65;;
5912;SDS011;2982;42.684;23.356;2022-07-29T00:04:24;9.57;;;8.98;;
5912;SDS011;2982;42.684;23.356;2022-07-29T00:06:50;10.88;;;9.95;;
5912;SDS011;2982;42.684;23.356;2022-07-29T00:09:16;10.25;;;9.05;;
5912;SDS011;2982;42.684;23.356;2022-07-29T00:11:41;10.40;;;9.32;;
5912;SDS011;2982;42.684;23.356;2022-07-29T00:14:06;9.10;;;8.55;;
5912;SDS011;2982;42.684;23.356;2022-07-29T00:16:32;8.85;;;8.23;;
5912;SDS011;2982;42.684;23.356;2022-07-29T00:18:57;11.73;;;9.45;;
5912;SDS011;2982;42.684;23.356;2022-07-29T00:21:22;10.13;;;9.25;;
5912;SDS011;2982;42.684;23.356;2022-07-29T00:23:48;10.05;;;9.35;;
5912;SDS011;2982;42.684;23.356;2022-07-29T00:26:13;10.70;;;9.65;;
5912;SDS011;2982;42.684;23.356;2022-07-29T00:28:38;9.70;;;8.98;;
5912;SDS011;2982;42.684;23.356;2022-07-29T00:31:03;9.15;;;8.63;;
5912;SDS011;2982;42.684;23.356;2022-07-29T00:33:29;9.30;;;8.60;;
5912;SDS011;2982;42.684;23.356;2022-07-29T00:35:54;8.82;;;8.23;;
5912;SDS011;2982;42.684;23.356;2022-07-29T00:38:19;10.07;;;9.35;;
5912;SDS011;2982;42.684;23.356;2022-07-29T00:40:45;9.45;;;8.75;;
5912;SDS011;2982;42.684;23.356;2022-07-29T00:43:12;9.63;;;8.85;;
5912;SDS011;2982;42.684;23.356;2022-07-29T00:45:38;9.07;;;8.30;;
5912;SDS011;2982;42.684;23.356;2022-07-29T00:48:03;9.45;;;8.75;;
5912;SDS011;2982;42.684;23.356;2022-07-29T00:50:29;9.35;;;8.68;;
5912;SDS011;2982;42.684;23.356;2022-07-29T00:52:54;8.95;;;8.45;;
5912;SDS011;2982;42.684;23.356;2022-07-29T00:55:20;10.38;;;9.32;;
5912;SDS011;2982;42.684;23.356;2022-07-29T00:57:45;9.63;;;8.90;;
5912;SDS011;2982;42.684;23.356;2022-07-29T01:00:12;9.85;;;9.13;;
5912;SDS011;2982;42.684;23.356;2022-07-29T01:02:49;11.38;;;10.50;;
5912;SDS011;2982;42.684;23.356;2022-07-29T01:05:14;10.07;;;9.35;;
5912;SDS011;2982;42.684;23.356;2022-07-29T01:07:49;12.35;;;11.25;;
5912;SDS011;2982;42.684;23.356;2022-07-29T01:10:16;19.38;;;11.70;;
5912;SDS011;2982;42.684;23.356;2022-07-29T01:12:44;12.90;;;11.80;;
5912;SDS011;2982;42.684;23.356;2022-07-29T01:15:12;12.60;;;11.70;;
5912;SDS011;2982;42.684;23.356;2022-07-29T01:20:13;15.43;;;13.98;;
5912;SDS011;2982;42.684;23.356;2022-07-29T01:23:01;16.00;;;14.70;;
5912;SDS011;2982;42.684;23.356;2022-07-29T01:25:48;15.73;;;14.02;;
5912;SDS011;2982;42.684;23.356;2022-07-29T01:31:04;14.95;;;13.82;;
5912;SDS011;2982;42.684;23.356;2022-07-29T01:33:32;15.35;;;13.93;;
5912;SDS011;2982;42.684;23.356;2022-07-29T01:36:00;15.77;;;14.38;;
5912;SDS011;2982;42.684;23.356;2022-07-29T01:38:29;15.25;;;13.60;;
5912;SDS011;2982;42.684;23.356;2022-07-29T01:41:13;16.05;;;14.75;;
5912;SDS011;2982;42.684;23.356;2022-07-29T01:43:44;16.10;;;14.85;;
5912;SDS011;2982;42.684;23.356;2022-07-29T01:46:25;16.65;;;15.10;;
5912;SDS011;2982;42.684;23.356;2022-07-29T01:49:30;17.65;;;15.63;;
5912;SDS011;2982;42.684;23.356;2022-07-29T01:51:54;16.70;;;15.05;;
5912;SDS011;2982;42.684;23.356;2022-07-29T01:54:32;16.70;;;14.93;;
5912;SDS011;2982;42.684;23.356;2022-07-29T01:57:02;16.65;;;13.80;;
5912;SDS011;2982;42.684;23.356;2022-07-29T01:59:29;16.85;;;14.30;;
5912;SDS011;2982;42.684;23.356;2022-07-29T02:01:57;16.42;;;14.82;;
5912;SDS011;2982;42.684;23.356;2022-07-29T02:04:23;15.95;;;14.48;;
5912;SDS011;2982;42.684;23.356;2022-07-29T02:06:52;14.95;;;13.52;;
5912;SDS011;2982;42.684;23.356;2022-07-29T02:09:19;15.77;;;14.52;;
5912;SDS011;2982;42.684;23.356;2022-07-29T02:11:51;15.43;;;14.13;;
5912;SDS011;2982;42.684;23.356;2022-07-29T02:14:18;16.13;;;14.43;;
5912;SDS011;2982;42.684;23.356;2022-07-29T02:16:46;16.67;;;15.25;;
5912;SDS011;2982;42.684;23.356;2022-07-29T02:19:13;15.70;;;14.07;;
5912;SDS011;2982;42.684;23.356;2022-07-29T02:21:41;16.30;;;14.80;;
5912;SDS011;2982;42.684;23.356;2022-07-29T02:24:09;15.57;;;13.93;;
5912;SDS011;2982;42.684;23.356;2022-07-29T02:26:37;15.18;;;13.73;;
5912;SDS011;2982;42.684;23.356;2022-07-29T02:29:04;15.77;;;14.43;;
5912;SDS011;2982;42.684;23.356;2022-07-29T02:31:32;16.23;;;14.68;;
5912;SDS011;2982;42.684;23.356;2022-07-29T02:34:00;17.27;;;15.77;;
5912;SDS011;2982;42.684;23.356;2022-07-29T02:36:28;16.35;;;14.75;;
5912;SDS011;2982;42.684;23.356;2022-07-29T02:38:54;14.23;;;12.90;;
5912;SDS011;2982;42.684;23.356;2022-07-29T02:41:27;17.45;;;13.40;;
5912;SDS011;2982;42.684;23.356;2022-07-29T02:44:10;14.25;;;13.05;;
5912;SDS011;2982;42.684;23.356;2022-07-29T02:46:37;16.92;;;14.52;;
5912;SDS011;2982;42.684;23.356;2022-07-29T02:51:46;14.60;;;12.48;;
5912;SDS011;2982;42.684;23.356;2022-07-29T02:54:26;12.50;;;11.32;;
5912;SDS011;2982;42.684;23.356;2022-07-29T03:00:25;10.00;;;9.30;;
5912;SDS011;2982;42.684;23.356;2022-07-29T03:02:53;11.50;;;10.57;;
5912;SDS011;2982;42.684;23.356;2022-07-29T03:05:21;9.70;;;8.93;;
5912;SDS011;2982;42.684;23.356;2022-07-29T03:07:51;11.27;;;10.20;;
5912;SDS011;2982;42.684;23.356;2022-07-29T03:10:22;9.93;;;9.15;;
5912;SDS011;2982;42.684;23.356;2022-07-29T03:12:49;10.80;;;9.73;;
5912;SDS011;2982;42.684;23.356;2022-07-29T03:15:15;11.40;;;10.40;;
5912;SDS011;2982;42.684;23.356;2022-07-29T03:17:41;12.30;;;11.20;;
5912;SDS011;2982;42.684;23.356;2022-07-29T03:20:07;14.95;;;12.27;;
5912;SDS011;2982;42.684;23.356;2022-07-29T03:22:38;15.23;;;12.60;;
5912;SDS011;2982;42.684;23.356;2022-07-29T03:25:08;13.43;;;12.15;;
5912;SDS011;2982;42.684;23.356;2022-07-29T03:27:37;14.63;;;13.30;;
5912;SDS011;2982;42.684;23.356;2022-07-29T03:30:02;14.65;;;13.27;;
5912;SDS011;2982;42.684;23.356;2022-07-29T03:32:28;14.13;;;12.80;;
5912;SDS011;2982;42.684;23.356;2022-07-29T03:34:54;15.20;;;13.98;;
5912;SDS011;2982;42.684;23.356;2022-07-29T03:37:19;15.90;;;14.18;;
5912;SDS011;2982;42.684;23.356;2022-07-29T03:39:44;14.65;;;13.13;;
5912;SDS011;2982;42.684;23.356;2022-07-29T03:42:12;14.70;;;13.48;;
5912;SDS011;2982;42.684;23.356;2022-07-29T03:44:40;15.70;;;14.23;;
5912;SDS011;2982;42.684;23.356;2022-07-29T03:47:08;15.80;;;14.38;;
5912;SDS011;2982;42.684;23.356;2022-07-29T03:49:36;14.45;;;13.18;;
5912;SDS011;2982;42.684;23.356;2022-07-29T03:52:02;14.73;;;13.43;;
5912;SDS011;2982;42.684;23.356;2022-07-29T03:54:28;14.60;;;13.40;;
5912;SDS011;2982;42.684;23.356;2022-07-29T03:56:54;15.32;;;13.38;;
5912;SDS011;2982;42.684;23.356;2022-07-29T03:59:24;14.77;;;13.38;;
5912;SDS011;2982;42.684;23.356;2022-07-29T04:01:50;15.15;;;13.70;;
5912;SDS011;2982;42.684;23.356;2022-07-29T04:04:16;13.88;;;12.77;;
5912;SDS011;2982;42.684;23.356;2022-07-29T04:06:43;14.32;;;12.82;;
5912;SDS011;2982;42.684;23.356;2022-07-29T04:09:09;14.10;;;12.63;;
5912;SDS011;2982;42.684;23.356;2022-07-29T04:11:36;12.57;;;11.55;;
5912;SDS011;2982;42.684;23.356;2022-07-29T04:14:03;13.75;;;12.43;;
5912;SDS011;2982;42.684;23.356;2022-07-29T04:16:28;14.25;;;12.45;;
5912;SDS011;2982;42.684;23.356;2022-07-29T04:18:53;9.90;;;9.05;;
5912;SDS011;2982;42.684;23.356;2022-07-29T04:21:19;10.27;;;9.48;;
5912;SDS011;2982;42.684;23.356;2022-07-29T04:23:44;10.60;;;9.52;;
5912;SDS011;2982;42.684;23.356;2022-07-29T04:26:09;10.10;;;9.00;;
5912;SDS011;2982;42.684;23.356;2022-07-29T04:28:35;9.50;;;8.55;;
5912;SDS011;2982;42.684;23.356;2022-07-29T04:31:00;9.30;;;7.82;;
5912;SDS011;2982;42.684;23.356;2022-07-29T04:33:25;9.20;;;8.32;;
5912;SDS011;2982;42.684;23.356;2022-07-29T04:35:51;10.75;;;8.15;;
5912;SDS011;2982;42.684;23.356;2022-07-29T04:38:16;9.30;;;8.35;;
5912;SDS011;2982;42.684;23.356;2022-07-29T04:40:41;9.35;;;8.40;;
5912;SDS011;2982;42.684;23.356;2022-07-29T04:43:07;8.57;;;7.90;;
5912;SDS011;2982;42.684;23.356;2022-07-29T04:45:32;9.65;;;8.02;;
5912;SDS011;2982;42.684;23.356;2022-07-29T04:47:57;8.35;;;7.65;;
5912;SDS011;2982;42.684;23.356;2022-07-29T04:50:22;9.15;;;7.00;;
5912;SDS011;2982;42.684;23.356;2022-07-29T04:52:48;8.73;;;6.88;;
5912;SDS011;2982;42.684;23.356;2022-07-29T04:55:13;8.48;;;6.97;;
5912;SDS011;2982;42.684;23.356;2022-07-29T04:57:39;8.68;;;6.57;;
5912;SDS011;2982;42.684;23.356;2022-07-29T05:00:04;7.88;;;6.65;;
5912;SDS011;2982;42.684;23.356;2022-07-29T05:02:30;6.97;;;6.47;;
5912;SDS011;2982;42.684;23.356;2022-07-29T05:04:56;7.50;;;6.63;;
5912;SDS011;2982;42.684;23.356;2022-07-29T05:07:21;6.55;;;6.00;;
5912;SDS011;2982;42.684;23.356;2022-07-29T05:09:46;7.35;;;6.55;;
5912;SDS011;2982;42.684;23.356;2022-07-29T05:12:12;7.72;;;6.75;;
5912;SDS011;2982;42.684;23.356;2022-07-29T05:14:37;8.27;;;7.47;;
5912;SDS011;2982;42.684;23.356;2022-07-29T05:17:02;9.60;;;6.90;;
5912;SDS011;2982;42.684;23.356;2022-07-29T05:19:28;9.95;;;7.10;;
5912;SDS011;2982;42.684;23.356;2022-07-29T05:21:53;6.55;;;6.13;;
5912;SDS011;2982;42.684;23.356;2022-07-29T05:24:18;8.93;;;6.90;;
5912;SDS011;2982;42.684;23.356;2022-07-29T05:26:43;11.68;;;6.30;;
5912;SDS011;2982;42.684;23.356;2022-07-29T05:29:10;6.80;;;6.38;;
5912;SDS011;2982;42.684;23.356;2022-07-29T05:31:35;9.27;;;6.93;;
5912;SDS011;2982;42.684;23.356;2022-07-29T05:34:01;13.50;;;7.85;;
5912;SDS011;2982;42.684;23.356;2022-07-29T05:36:26;11.90;;;6.57;;
5912;SDS011;2982;42.684;23.356;2022-07-29T05:38:51;5.93;;;5.63;;
5912;SDS011;2982;42.684;23.356;2022-07-29T05:41:17;6.90;;;6.28;;
5912;SDS011;2982;42.684;23.356;2022-07-29T05:43:43;7.25;;;5.63;;
5912;SDS011;2982;42.684;23.356;2022-07-29T05:46:08;6.30;;;5.80;;
5912;SDS011;2982;42.684;23.356;2022-07-29T05:48:34;7.00;;;4.80;;
5912;SDS011;2982;42.684;23.356;2022-07-29T05:50:59;6.47;;;4.38;;
5912;SDS011;2982;42.684;23.356;2022-07-29T05:53:24;5.22;;;4.97;;
5912;SDS011;2982;42.684;23.356;2022-07-29T05:55:50;5.00;;;4.63;;
5912;SDS011;2982;42.684;23.356;2022-07-29T05:58:15;5.55;;;5.05;;
5912;SDS011;2982;42.684;23.356;2022-07-29T06:00:41;5.95;;;5.55;;
5912;SDS011;2982;42.684;23.356;2022-07-29T06:03:06;5.63;;;5.13;;
5912;SDS011;2982;42.684;23.356;2022-07-29T06:05:32;9.75;;;5.10;;
5912;SDS011;2982;42.684;23.356;2022-07-29T06:07:57;5.07;;;4.78;;
5912;SDS011;2982;42.684;23.356;2022-07-29T06:10:22;5.45;;;5.05;;
5912;SDS011;2982;42.684;23.356;2022-07-29T06:12:48;5.75;;;5.13;;
5912;SDS011;2982;42.684;23.356;2022-07-29T06:15:13;7.35;;;5.03;;
5912;SDS011;2982;42.684;23.356;2022-07-29T06:17:38;5.63;;;5.03;;
5912;SDS011;2982;42.684;23.356;2022-07-29T06:20:03;6.22;;;4.47;;
5912;SDS011;2982;42.684;23.356;2022-07-29T06:22:29;7.07;;;4.85;;
5912;SDS011;2982;42.684;23.356;2022-07-29T06:24:54;11.68;;;5.25;;
5912;SDS011;2982;42.684;23.356;2022-07-29T06:27:20;5.22;;;4.88;;
5912;SDS011;2982;42.684;23.356;2022-07-29T06:29:45;5.70;;;4.50;;
5912;SDS011;2982;42.684;23.356;2022-07-29T06:32:10;6.25;;;4.95;;
5912;SDS011;2982;42.684;23.356;2022-07-29T06:34:36;6.78;;;4.60;;
5912;SDS011;2982;42.684;23.356;2022-07-29T06:37:10;5.07;;;4.68;;
5912;SDS011;2982;42.684;23.356;2022-07-29T06:39:35;4.82;;;4.40;;
5912;SDS011;2982;42.684;23.356;2022-07-29T06:42:01;4.78;;;4.38;;
5912;SDS011;2982;42.684;23.356;2022-07-29T06:44:28;4.93;;;4.35;;
5912;SDS011;2982;42.684;23.356;2022-07-29T06:46:53;4.63;;;4.05;;
5912;SDS011;2982;42.684;23.356;2022-07-29T06:49:18;7.72;;;4.60;;
5912;SDS011;2982;42.684;23.356;2022-07-29T06:51:44;6.45;;;3.80;;
5912;SDS011;2982;42.684;23.356;2022-07-29T06:54:09;4.65;;;4.18;;
5912;SDS011;2982;42.684;23.356;2022-07-29T06:56:34;7.07;;;4.40;;
5912;SDS011;2982;42.684;23.356;2022-07-29T06:59:00;6.60;;;4.25;;
5912;SDS011;2982;42.684;23.356;2022-07-29T07:01:25;5.97;;;5.07;;
5912;SDS011;2982;42.684;23.356;2022-07-29T07:03:51;5.00;;;4.70;;
5912;SDS011;2982;42.684;23.356;2022-07-29T07:06:16;6.40;;;5.43;;
5912;SDS011;2982;42.684;23.356;2022-07-29T07:08:41;7.95;;;4.43;;
5912;SDS011;2982;42.684;23.356;2022-07-29T07:11:06;6.00;;;4.70;;
5912;SDS011;2982;42.684;23.356;2022-07-29T07:13:32;4.13;;;3.78;;
5912;SDS011;2982;42.684;23.356;2022-07-29T07:15:57;6.43;;;4.18;;
5912;SDS011;2982;42.684;23.356;2022-07-29T07:18:22;4.82;;;3.88;;
5912;SDS011;2982;42.684;23.356;2022-07-29T07:20:48;3.92;;;3.72;;
5912;SDS011;2982;42.684;23.356;2022-07-29T07:23:13;5.93;;;4.00;;
5912;SDS011;2982;42.684;23.356;2022-07-29T07:25:38;4.22;;;3.42;;
5912;SDS011;2982;42.684;23.356;2022-07-29T07:28:04;3.42;;;3.22;;
5912;SDS011;2982;42.684;23.356;2022-07-29T07:30:29;5.18;;;4.15;;
5912;SDS011;2982;42.684;23.356;2022-07-29T07:32:54;6.45;;;3.90;;
5912;SDS011;2982;42.684;23.356;2022-07-29T07:35:20;3.70;;;3.50;;
5912;SDS011;2982;42.684;23.356;2022-07-29T07:37:45;7.10;;;3.85;;
5912;SDS011;2982;42.684;23.356;2022-07-29T07:40:10;5.85;;;3.53;;
5912;SDS011;2982;42.684;23.356;2022-07-29T07:42:36;4.85;;;3.50;;
5912;SDS011;2982;42.684;23.356;2022-07-29T07:45:02;4.03;;;3.70;;
5912;SDS011;2982;42.684;23.356;2022-07-29T07:47:28;3.78;;;3.58;;
5912;SDS011;2982;42.684;23.356;2022-07-29T07:49:53;4.15;;;3.78;;
5912;SDS011;2982;42.684;23.356;2022-07-29T07:52:19;3.55;;;3.33;;
5912;SDS011;2982;42.684;23.356;2022-07-29T07:54:46;3.97;;;3.78;;
5912;SDS011;2982;42.684;23.356;2022-07-29T07:57:12;4.00;;;3.35;;
5912;SDS011;2982;42.684;23.356;2022-07-29T07:59:38;3.72;;;3.40;;
5912;SDS011;2982;42.684;23.356;2022-07-29T08:02:03;5.78;;;3.55;;
5912;SDS011;2982;42.684;23.356;2022-07-29T08:04:29;6.72;;;3.38;;
5912;SDS011;2982;42.684;23.356;2022-07-29T08:06:56;3.47;;;3.25;;
5912;SDS011;2982;42.684;23.356;2022-07-29T08:09:22;3.50;;;3.30;;
5912;SDS011;2982;42.684;23.356;2022-07-29T08:11:48;4.60;;;3.05;;
5912;SDS011;2982;42.684;23.356;2022-07-29T08:14:14;3.35;;;3.15;;
5912;SDS011;2982;42.684;23.356;2022-07-29T08:16:39;4.00;;;3.00;;
5912;SDS011;2982;42.684;23.356;2022-07-29T08:19:05;3.55;;;2.97;;
5912;SDS011;2982;42.684;23.356;2022-07-29T08:21:30;4.30;;;3.72;;
5912;SDS011;2982;42.684;23.356;2022-07-29T08:23:55;2.72;;;2.53;;
5912;SDS011;2982;42.684;23.356;2022-07-29T08:26:21;3.22;;;3.00;;
5912;SDS011;2982;42.684;23.356;2022-07-29T08:28:46;3.17;;;2.58;;
5912;SDS011;2982;42.684;23.356;2022-07-29T08:31:12;2.75;;;2.55;;
5912;SDS011;2982;42.684;23.356;2022-07-29T08:33:38;6.00;;;2.90;;
5912;SDS011;2982;42.684;23.356;2022-07-29T08:36:04;2.70;;;2.50;;
5912;SDS011;2982;42.684;23.356;2022-07-29T08:38:30;3.00;;;2.80;;
5912;SDS011;2982;42.684;23.356;2022-07-29T08:40:55;2.63;;;2.40;;
5912;SDS011;2982;42.684;23.356;2022-07-29T08:43:21;3.33;;;2.50;;
5912;SDS011;2982;42.684;23.356;2022-07-29T08:45:48;2.65;;;2.55;;
5912;SDS011;2982;42.684;23.356;2022-07-29T08:48:15;2.30;;;2.20;;
5912;SDS011;2982;42.684;23.356;2022-07-29T08:50:46;5.30;;;2.45;;
5912;SDS011;2982;42.684;23.356;2022-07-29T08:53:13;2.25;;;2.10;;
5912;SDS011;2982;42.684;23.356;2022-07-29T08:55:44;3.03;;;2.50;;
5912;SDS011;2982;42.684;23.356;2022-07-29T08:58:14;2.50;;;2.40;;
5912;SDS011;2982;42.684;23.356;2022-07-29T09:00:52;2.38;;;2.20;;
5912;SDS011;2982;42.684;23.356;2022-07-29T09:03:19;2.50;;;2.40;;
5912;SDS011;2982;42.684;23.356;2022-07-29T09:05:47;3.40;;;2.30;;
5912;SDS011;2982;42.684;23.356;2022-07-29T09:08:13;4.80;;;2.45;;
5912;SDS011;2982;42.684;23.356;2022-07-29T09:10:40;2.85;;;2.65;;
5912;SDS011;2982;42.684;23.356;2022-07-29T09:13:05;3.03;;;2.83;;
5912;SDS011;2982;42.684;23.356;2022-07-29T09:15:31;2.28;;;2.15;;
5912;SDS011;2982;42.684;23.356;2022-07-29T09:17:56;4.50;;;2.90;;
5912;SDS011;2982;42.684;23.356;2022-07-29T09:20:22;4.13;;;3.10;;
5912;SDS011;2982;42.684;23.356;2022-07-29T09:22:47;3.58;;;2.30;;
5912;SDS011;2982;42.684;23.356;2022-07-29T09:25:13;2.97;;;2.60;;
5912;SDS011;2982;42.684;23.356;2022-07-29T09:27:38;2.70;;;2.50;;
5912;SDS011;2982;42.684;23.356;2022-07-29T09:30:05;3.63;;;2.75;;
5912;SDS011;2982;42.684;23.356;2022-07-29T09:32:32;3.22;;;2.88;;
5912;SDS011;2982;42.684;23.356;2022-07-29T09:35:14;2.88;;;2.67;;
5912;SDS011;2982;42.684;23.356;2022-07-29T09:37:39;3.92;;;2.60;;
5912;SDS011;2982;42.684;23.356;2022-07-29T09:40:12;3.75;;;3.00;;
5912;SDS011;2982;42.684;23.356;2022-07-29T09:42:38;3.50;;;2.78;;
5912;SDS011;2982;42.684;23.356;2022-07-29T09:45:04;2.85;;;2.67;;
5912;SDS011;2982;42.684;23.356;2022-07-29T09:47:45;4.60;;;2.63;;
5912;SDS011;2982;42.684;23.356;2022-07-29T09:50:12;2.90;;;2.67;;
5912;SDS011;2982;42.684;23.356;2022-07-29T09:52:45;2.33;;;2.05;;
5912;SDS011;2982;42.684;23.356;2022-07-29T09:55:11;2.80;;;2.70;;
5912;SDS011;2982;42.684;23.356;2022-07-29T09:57:37;2.80;;;2.60;;
5912;SDS011;2982;42.684;23.356;2022-07-29T10:02:33;5.28;;;2.70;;
5912;SDS011;2982;42.684;23.356;2022-07-29T10:05:00;3.53;;;3.28;;
5912;SDS011;2982;42.684;23.356;2022-07-29T10:07:26;3.33;;;2.53;;
5912;SDS011;2982;42.684;23.356;2022-07-29T10:10:07;3.67;;;2.40;;
5912;SDS011;2982;42.684;23.356;2022-07-29T10:12:33;2.25;;;2.15;;
5912;SDS011;2982;42.684;23.356;2022-07-29T10:14:58;3.38;;;2.75;;
5912;SDS011;2982;42.684;23.356;2022-07-29T10:17:27;3.92;;;2.45;;
5912;SDS011;2982;42.684;23.356;2022-07-29T10:19:53;3.10;;;2.80;;
5912;SDS011;2982;42.684;23.356;2022-07-29T10:22:18;3.75;;;3.08;;
5912;SDS011;2982;42.684;23.356;2022-07-29T10:24:44;4.00;;;3.10;;
5912;SDS011;2982;42.684;23.356;2022-07-29T10:27:09;3.30;;;2.50;;
5912;SDS011;2982;42.684;23.356;2022-07-29T10:29:35;8.45;;;3.00;;
5912;SDS011;2982;42.684;23.356;2022-07-29T10:32:06;4.40;;;2.83;;
5912;SDS011;2982;42.684;23.356;2022-07-29T10:43:32;4.32;;;2.63;;
5912;SDS011;2982;42.684;23.356;2022-07-29T10:45:57;3.20;;;3.00;;
5912;SDS011;2982;42.684;23.356;2022-07-29T10:48:25;5.30;;;2.40;;
5912;SDS011;2982;42.684;23.356;2022-07-29T10:50:51;2.50;;;2.25;;
5912;SDS011;2982;42.684;23.356;2022-07-29T10:53:21;2.45;;;2.28;;
5912;SDS011;2982;42.684;23.356;2022-07-29T10:55:47;2.63;;;2.42;;
5912;SDS011;2982;42.684;23.356;2022-07-29T10:58:16;2.97;;;2.78;;
5912;SDS011;2982;42.684;23.356;2022-07-29T11:00:43;2.88;;;2.78;;
5912;SDS011;2982;42.684;23.356;2022-07-29T11:03:10;2.80;;;2.25;;
5912;SDS011;2982;42.684;23.356;2022-07-29T11:06:11;2.30;;;2.20;;
5912;SDS011;2982;42.684;23.356;2022-07-29T11:08:36;3.65;;;2.67;;
5912;SDS011;2982;42.684;23.356;2022-07-29T11:16:17;4.63;;;2.78;;
5912;SDS011;2982;42.684;23.356;2022-07-29T11:21:38;4.10;;;2.47;;
5912;SDS011;2982;42.684;23.356;2022-07-29T11:24:14;3.13;;;2.85;;
5912;SDS011;2982;42.684;23.356;2022-07-29T11:26:44;3.30;;;2.63;;
5912;SDS011;2982;42.684;23.356;2022-07-29T11:29:16;2.70;;;2.50;;
5912;SDS011;2982;42.684;23.356;2022-07-29T11:39:34;3.13;;;2.90;;
5912;SDS011;2982;42.684;23.356;2022-07-29T11:44:54;3.70;;;2.97;;
5912;SDS011;2982;42.684;23.356;2022-07-29T11:47:24;3.30;;;3.10;;
5912;SDS011;2982;42.684;23.356;2022-07-29T11:49:50;3.58;;;3.05;;
5912;SDS011;2982;42.684;23.356;2022-07-29T11:52:17;5.32;;;2.88;;
5912;SDS011;2982;42.684;23.356;2022-07-29T11:54:43;4.10;;;3.22;;
5912;SDS011;2982;42.684;23.356;2022-07-29T11:57:08;3.55;;;3.25;;
5912;SDS011;2982;42.684;23.356;2022-07-29T11:59:40;3.20;;;3.00;;
5912;SDS011;2982;42.684;23.356;2022-07-29T12:02:06;4.55;;;3.00;;
5912;SDS011;2982;42.684;23.356;2022-07-29T12:04:32;3.30;;;2.97;;
5912;SDS011;2982;42.684;23.356;2022-07-29T12:06:57;3.28;;;3.17;;
5912;SDS011;2982;42.684;23.356;2022-07-29T12:09:23;4.10;;;3.20;;
5912;SDS011;2982;42.684;23.356;2022-07-29T12:11:49;3.42;;;3.13;;
5912;SDS011;2982;42.684;23.356;2022-07-29T12:14:28;3.58;;;3.38;;
5912;SDS011;2982;42.684;23.356;2022-07-29T12:16:54;3.15;;;2.85;;
5912;SDS011;2982;42.684;23.356;2022-07-29T12:19:20;3.28;;;3.08;;
5912;SDS011;2982;42.684;23.356;2022-07-29T12:21:46;3.92;;;3.70;;
5912;SDS011;2982;42.684;23.356;2022-07-29T12:24:13;3.67;;;3.47;;
5912;SDS011;2982;42.684;23.356;2022-07-29T12:26:55;3.47;;;3.28;;
5912;SDS011;2982;42.684;23.356;2022-07-29T12:29:21;4.38;;;4.07;;
5912;SDS011;2982;42.684;23.356;2022-07-29T12:31:51;6.15;;;2.85;;
5912;SDS011;2982;42.684;23.356;2022-07-29T12:34:17;3.20;;;3.10;;
5912;SDS011;2982;42.684;23.356;2022-07-29T12:36:43;5.43;;;3.88;;
5912;SDS011;2982;42.684;23.356;2022-07-29T12:39:09;4.13;;;3.70;;
5912;SDS011;2982;42.684;23.356;2022-07-29T12:41:35;4.53;;;4.30;;
5912;SDS011;2982;42.684;23.356;2022-07-29T12:44:01;4.10;;;3.90;;
5912;SDS011;2982;42.684;23.356;2022-07-29T12:46:26;4.18;;;3.95;;
5912;SDS011;2982;42.684;23.356;2022-07-29T12:48:52;4.65;;;4.35;;
5912;SDS011;2982;42.684;23.356;2022-07-29T12:51:18;4.03;;;3.72;;
5912;SDS011;2982;42.684;23.356;2022-07-29T12:54:11;4.25;;;3.85;;
5912;SDS011;2982;42.684;23.356;2022-07-29T12:56:38;4.82;;;4.53;;
5912;SDS011;2982;42.684;23.356;2022-07-29T13:01:43;3.60;;;3.40;;
5912;SDS011;2982;42.684;23.356;2022-07-29T13:04:09;4.00;;;3.80;;
5912;SDS011;2982;42.684;23.356;2022-07-29T13:06:36;4.22;;;3.92;;
5912;SDS011;2982;42.684;23.356;2022-07-29T13:09:08;4.75;;;4.45;;
5912;SDS011;2982;42.684;23.356;2022-07-29T13:11:42;5.35;;;3.90;;
5912;SDS011;2982;42.684;23.356;2022-07-29T13:14:11;4.13;;;3.78;;
5912;SDS011;2982;42.684;23.356;2022-07-29T13:16:59;3.97;;;3.75;;
5912;SDS011;2982;42.684;23.356;2022-07-29T13:19:33;4.28;;;4.07;;
5912;SDS011;2982;42.684;23.356;2022-07-29T13:22:06;4.88;;;4.53;;
5912;SDS011;2982;42.684;23.356;2022-07-29T13:24:48;4.57;;;4.05;;
5912;SDS011;2982;42.684;23.356;2022-07-29T13:27:17;3.83;;;3.63;;
5912;SDS011;2982;42.684;23.356;2022-07-29T13:29:44;4.32;;;3.92;;
5912;SDS011;2982;42.684;23.356;2022-07-29T13:32:10;5.20;;;4.15;;
5912;SDS011;2982;42.684;23.356;2022-07-29T13:34:36;3.75;;;3.38;;
5912;SDS011;2982;42.684;23.356;2022-07-29T13:37:01;3.72;;;3.50;;
5912;SDS011;2982;42.684;23.356;2022-07-29T13:39:26;5.10;;;3.53;;
5912;SDS011;2982;42.684;23.356;2022-07-29T13:41:51;3.55;;;3.33;;
5912;SDS011;2982;42.684;23.356;2022-07-29T13:44:17;3.83;;;3.53;;
5912;SDS011;2982;42.684;23.356;2022-07-29T13:46:42;3.72;;;3.45;;
5912;SDS011;2982;42.684;23.356;2022-07-29T13:49:07;4.93;;;4.15;;
5912;SDS011;2982;42.684;23.356;2022-07-29T13:51:33;5.13;;;4.70;;
5912;SDS011;2982;42.684;23.356;2022-07-29T13:53:58;4.13;;;3.83;;
5912;SDS011;2982;42.684;23.356;2022-07-29T13:56:23;3.78;;;3.58;;
5912;SDS011;2982;42.684;23.356;2022-07-29T13:58:48;4.25;;;3.95;;
5912;SDS011;2982;42.684;23.356;2022-07-29T14:01:14;3.67;;;3.45;;
5912;SDS011;2982;42.684;23.356;2022-07-29T14:03:39;3.72;;;3.38;;
5912;SDS011;2982;42.684;23.356;2022-07-29T14:06:05;4.32;;;4.03;;
5912;SDS011;2982;42.684;23.356;2022-07-29T14:08:30;5.55;;;4.05;;
5912;SDS011;2982;42.684;23.356;2022-07-29T14:10:55;4.40;;;3.90;;
5912;SDS011;2982;42.684;23.356;2022-07-29T14:13:20;6.30;;;4.82;;
5912;SDS011;2982;42.684;23.356;2022-07-29T14:15:46;5.15;;;4.60;;
5912;SDS011;2982;42.684;23.356;2022-07-29T14:18:11;3.72;;;3.53;;
5912;SDS011;2982;42.684;23.356;2022-07-29T14:20:36;6.30;;;4.10;;
5912;SDS011;2982;42.684;23.356;2022-07-29T14:23:01;6.75;;;3.67;;
5912;SDS011;2982;42.684;23.356;2022-07-29T14:25:27;4.38;;;4.00;;
5912;SDS011;2982;42.684;23.356;2022-07-29T14:27:52;3.92;;;3.72;;
5912;SDS011;2982;42.684;23.356;2022-07-29T14:30:17;4.20;;;3.95;;
5912;SDS011;2982;42.684;23.356;2022-07-29T14:32:43;7.03;;;3.90;;
5912;SDS011;2982;42.684;23.356;2022-07-29T14:35:08;4.28;;;3.53;;
5912;SDS011;2982;42.684;23.356;2022-07-29T14:37:33;3.83;;;3.65;;
5912;SDS011;2982;42.684;23.356;2022-07-29T14:39:59;3.97;;;3.63;;
5912;SDS011;2982;42.684;23.356;2022-07-29T14:42:24;3.63;;;3.33;;
5912;SDS011;2982;42.684;23.356;2022-07-29T14:44:50;4.53;;;4.13;;
5912;SDS011;2982;42.684;23.356;2022-07-29T14:47:15;4.60;;;4.22;;
5912;SDS011;2982;42.684;23.356;2022-07-29T14:49:40;4.13;;;3.92;;
5912;SDS011;2982;42.684;23.356;2022-07-29T14:52:05;6.28;;;4.13;;
5912;SDS011;2982;42.684;23.356;2022-07-29T14:54:31;11.52;;;4.88;;
5912;SDS011;2982;42.684;23.356;2022-07-29T14:56:56;4.75;;;3.75;;
5912;SDS011;2982;42.684;23.356;2022-07-29T14:59:21;5.03;;;4.40;;
5912;SDS011;2982;42.684;23.356;2022-07-29T15:01:47;7.72;;;4.15;;
5912;SDS011;2982;42.684;23.356;2022-07-29T15:04:12;4.03;;;3.83;;
5912;SDS011;2982;42.684;23.356;2022-07-29T15:06:37;5.78;;;4.15;;
5912;SDS011;2982;42.684;23.356;2022-07-29T15:09:02;5.30;;;3.58;;
5912;SDS011;2982;42.684;23.356;2022-07-29T15:11:28;5.35;;;4.85;;
5912;SDS011;2982;42.684;23.356;2022-07-29T15:13:53;6.68;;;4.32;;
5912;SDS011;2982;42.684;23.356;2022-07-29T15:16:18;4.65;;;4.20;;
5912;SDS011;2982;42.684;23.356;2022-07-29T15:18:44;4.40;;;4.20;;
5912;SDS011;2982;42.684;23.356;2022-07-29T15:21:09;4.60;;;4.30;;
5912;SDS011;2982;42.684;23.356;2022-07-29T15:23:34;4.93;;;4.63;;
5912;SDS011;2982;42.684;23.356;2022-07-29T15:25:59;4.75;;;4.40;;
5912;SDS011;2982;42.684;23.356;2022-07-29T15:28:25;5.00;;;4.32;;
5912;SDS011;2982;42.684;23.356;2022-07-29T15:30:50;5.82;;;4.15;;
5912;SDS011;2982;42.684;23.356;2022-07-29T15:33:15;5.43;;;5.03;;
5912;SDS011;2982;42.684;23.356;2022-07-29T15:35:41;5.13;;;4.72;;
5912;SDS011;2982;42.684;23.356;2022-07-29T15:38:06;4.38;;;4.13;;
5912;SDS011;2982;42.684;23.356;2022-07-29T15:40:32;4.07;;;3.78;;